Time;durP1;ratioP1;P1;durP2;ratioP2;P2;SDS_P1;SDS_P2;PMS_P1;PMS_P2;Temp;Humidity;BMP_temperature;BMP_pressure;BME280_temperature;BME280_humidity;BME280_pressure;Samples;Min_cycle;Max_cycle;Signal;HPM_P1;HPM_P2
2024/03/07 00:00:14;;;;;;;10.60;9.70;;;6.30;65.70;;;;;;4991836;28;20260;-59
2024/03/07 00:02:40;;;;;;;11.70;10.57;;;6.20;65.90;;;;;;4984912;28;20780;-59
2024/03/07 00:05:07;;;;;;;11.10;10.03;;;6.20;65.80;;;;;;4983106;28;20202;-58
2024/03/07 00:07:33;;;;;;;10.70;9.70;;;6.10;66.80;;;;;;4992186;28;20673;-59
2024/03/07 00:09:59;;;;;;;12.10;11.00;;;6.30;66.40;;;;;;4990097;28;20212;-59
2024/03/07 00:12:27;;;;;;;12.00;10.80;;;6.20;66.10;;;;;;4991963;28;20273;-60
2024/03/07 00:14:53;;;;;;;11.23;10.13;;;6.20;66.10;;;;;;4995839;28;20269;-59
2024/03/07 00:17:20;;;;;;;11.87;10.63;;;6.30;66.20;;;;;;4995162;28;20238;-59
2024/03/07 00:19:47;;;;;;;12.50;11.20;;;6.30;66.00;;;;;;4996214;28;20217;-58
2024/03/07 00:22:14;;;;;;;12.27;11.03;;;6.20;65.70;;;;;;4997810;28;20236;-59
2024/03/07 00:24:42;;;;;;;12.63;11.43;;;6.20;66.20;;;;;;4998074;28;20207;-60
2024/03/07 00:27:11;;;;;;;12.80;11.50;;;6.30;66.00;;;;;;4987786;28;20207;-60
2024/03/07 00:29:38;;;;;;;12.73;11.43;;;6.20;66.40;;;;;;4994410;28;20264;-57
2024/03/07 00:32:05;;;;;;;13.00;11.60;;;6.20;66.50;;;;;;4998871;28;20330;-59
2024/03/07 00:34:32;;;;;;;12.23;10.93;;;6.20;66.90;;;;;;4997070;28;21005;-58
2024/03/07 00:36:59;;;;;;;13.33;11.93;;;6.20;67.40;;;;;;4994618;28;20236;-59
2024/03/07 00:39:25;;;;;;;13.43;11.70;;;6.30;66.60;;;;;;4998553;28;20206;-58
2024/03/07 00:41:52;;;;;;;15.80;12.60;;;6.20;66.70;;;;;;4998286;28;20240;-59
2024/03/07 00:44:18;;;;;;;13.90;12.20;;;6.10;67.00;;;;;;4997300;28;20220;-61
2024/03/07 00:46:45;;;;;;;13.17;11.87;;;6.20;67.00;;;;;;4992534;28;20211;-60
2024/03/07 00:49:12;;;;;;;13.80;12.10;;;6.20;66.80;;;;;;4998355;28;20222;-59
2024/03/07 00:51:39;;;;;;;13.37;11.97;;;6.20;66.40;;;;;;4996074;28;20255;-59
2024/03/07 00:54:06;;;;;;;14.20;12.73;;;6.20;67.10;;;;;;4997770;28;20231;-61
2024/03/07 00:56:32;;;;;;;13.53;12.03;;;6.40;66.50;;;;;;4992013;28;20656;-58
2024/03/07 00:58:59;;;;;;;14.47;12.33;;;6.30;67.00;;;;;;4999965;28;20276;-59
2024/03/07 01:01:25;;;;;;;14.27;12.77;;;6.30;66.80;;;;;;4983662;28;20231;-59
2024/03/07 01:03:52;;;;;;;13.80;12.30;;;6.40;66.90;;;;;;4995933;28;20215;-60
2024/03/07 01:06:20;;;;;;;15.53;13.80;;;6.20;66.90;;;;;;4990171;28;20218;-60
2024/03/07 01:08:46;;;;;;;15.97;13.53;;;6.20;67.10;;;;;;4997871;28;20604;-58
2024/03/07 01:11:13;;;;;;;14.40;12.77;;;6.20;66.60;;;;;;4996901;28;20261;-59
2024/03/07 01:13:39;;;;;;;16.40;14.17;;;6.10;67.70;;;;;;4998322;28;20225;-60
2024/03/07 01:16:06;;;;;;;14.70;13.17;;;6.10;67.60;;;;;;4990206;28;20262;-60
2024/03/07 01:18:33;;;;;;;16.80;14.13;;;6.20;67.60;;;;;;4990590;28;20260;-60
2024/03/07 01:20:59;;;;;;;16.93;13.63;;;6.10;67.40;;;;;;4992337;28;20735;-60
2024/03/07 01:23:26;;;;;;;16.90;14.03;;;6.10;67.80;;;;;;4999644;28;20250;-60
2024/03/07 01:25:52;;;;;;;18.30;15.50;;;6.20;67.20;;;;;;4999320;28;20277;-61
2024/03/07 01:28:19;;;;;;;16.07;14.37;;;6.20;66.80;;;;;;4997965;28;20228;-60
2024/03/07 01:30:45;;;;;;;17.53;14.70;;;6.20;67.70;;;;;;4997734;28;20207;-61
2024/03/07 01:33:12;;;;;;;17.40;14.57;;;6.20;66.90;;;;;;4990377;28;20234;-61
2024/03/07 01:35:38;;;;;;;17.17;14.63;;;6.30;68.20;;;;;;4991496;28;20207;-61
2024/03/07 01:38:05;;;;;;;18.33;14.27;;;6.20;67.80;;;;;;4997637;28;20219;-59
2024/03/07 01:40:31;;;;;;;19.03;15.03;;;6.30;67.20;;;;;;4997804;28;20272;-56
2024/03/07 01:42:58;;;;;;;20.00;15.03;;;6.20;67.60;;;;;;4996828;28;20230;-58
2024/03/07 01:45:24;;;;;;;20.73;16.13;;;6.00;67.60;;;;;;4996900;28;20269;-59
2024/03/07 01:47:51;;;;;;;19.63;15.90;;;6.10;68.20;;;;;;4997186;28;20205;-59
2024/03/07 01:50:17;;;;;;;19.40;16.17;;;6.20;68.60;;;;;;4988516;28;20703;-59
2024/03/07 01:52:44;;;;;;;18.80;15.73;;;6.10;68.00;;;;;;4993477;28;20235;-59
2024/03/07 01:55:10;;;;;;;18.53;14.87;;;6.20;68.00;;;;;;4994838;28;20243;-60
2024/03/07 01:57:37;;;;;;;16.37;14.63;;;6.30;67.70;;;;;;5003391;28;20273;-59
2024/03/07 02:00:06;;;;;;;16.90;14.53;;;6.20;67.80;;;;;;4996143;28;20214;-59
2024/03/07 02:02:32;;;;;;;19.30;15.53;;;6.20;68.00;;;;;;4996289;28;20242;-58
2024/03/07 02:04:59;;;;;;;19.43;15.70;;;6.20;67.80;;;;;;4996023;28;20209;-59
2024/03/07 02:07:26;;;;;;;20.07;15.87;;;6.20;68.60;;;;;;4989132;28;20210;-57
2024/03/07 02:09:53;;;;;;;19.30;16.13;;;6.30;67.70;;;;;;4987682;28;20214;-59
2024/03/07 02:12:19;;;;;;;20.27;16.57;;;6.30;67.50;;;;;;4995611;28;20253;-58
2024/03/07 02:14:46;;;;;;;19.80;16.20;;;6.20;67.40;;;;;;4996767;28;20231;-59
2024/03/07 02:17:12;;;;;;;19.03;16.70;;;6.30;67.70;;;;;;4996735;28;20311;-60
2024/03/07 02:19:39;;;;;;;18.40;15.17;;;6.30;67.30;;;;;;4998144;28;20766;-60
2024/03/07 02:22:05;;;;;;;18.57;16.00;;;6.30;67.70;;;;;;4994334;28;20235;-61
2024/03/07 02:24:32;;;;;;;18.50;15.67;;;6.30;67.70;;;;;;4991119;28;20268;-59
2024/03/07 02:26:59;;;;;;;21.17;16.57;;;6.30;68.00;;;;;;4991263;28;20296;-58
2024/03/07 02:29:26;;;;;;;23.27;17.60;;;6.40;67.50;;;;;;4995652;28;20305;-59
2024/03/07 02:31:52;;;;;;;19.63;16.77;;;6.40;67.20;;;;;;4995887;28;20241;-60
2024/03/07 02:34:19;;;;;;;22.00;17.50;;;6.30;67.20;;;;;;4995294;28;20713;-59
2024/03/07 02:36:45;;;;;;;20.00;17.67;;;6.50;67.00;;;;;;4994171;28;20210;-58
2024/03/07 02:39:12;;;;;;;21.00;17.33;;;6.40;67.10;;;;;;4993908;28;20638;-59
2024/03/07 02:41:38;;;;;;;21.37;17.60;;;6.40;67.00;;;;;;4986555;28;20242;-59
2024/03/07 02:44:05;;;;;;;22.47;17.30;;;6.40;67.20;;;;;;4990757;28;20250;-57
2024/03/07 02:46:32;;;;;;;19.67;16.80;;;6.40;66.90;;;;;;4991541;28;20241;-58
2024/03/07 02:48:59;;;;;;;23.87;18.20;;;6.40;67.00;;;;;;4994108;28;20233;-58
2024/03/07 02:51:25;;;;;;;19.13;16.47;;;6.20;67.00;;;;;;4986458;28;20278;-58
2024/03/07 02:53:52;;;;;;;20.10;16.77;;;6.20;67.00;;;;;;4993912;28;20217;-58
2024/03/07 02:56:18;;;;;;;23.67;17.37;;;6.30;67.50;;;;;;4992132;28;20761;-58
2024/03/07 02:58:45;;;;;;;18.97;16.07;;;6.50;67.30;;;;;;4994135;28;20211;-58
2024/03/07 03:01:12;;;;;;;20.30;16.20;;;6.40;67.00;;;;;;4985963;28;20314;-58
2024/03/07 03:03:42;;;;;;;20.70;16.40;;;6.40;66.90;;;;;;4990073;28;20342;-57
2024/03/07 03:06:08;;;;;;;23.30;17.77;;;6.40;66.60;;;;;;4988985;28;20562;-59
2024/03/07 03:08:35;;;;;;;20.80;17.93;;;6.40;66.80;;;;;;4987132;28;20265;-58
2024/03/07 03:11:02;;;;;;;23.30;18.67;;;6.30;66.80;;;;;;4994776;28;20312;-56
2024/03/07 03:13:28;;;;;;;23.47;19.37;;;6.40;66.80;;;;;;4993757;28;20215;-57
2024/03/07 03:15:55;;;;;;;23.40;18.23;;;6.30;67.00;;;;;;4993193;28;20235;-58
2024/03/07 03:18:22;;;;;;;21.00;18.33;;;6.40;66.50;;;;;;4978521;28;20211;-60
2024/03/07 03:20:48;;;;;;;21.97;17.83;;;6.30;66.60;;;;;;4985006;28;20599;-59
2024/03/07 03:23:14;;;;;;;23.90;17.60;;;6.30;67.10;;;;;;4984709;28;20224;-58
2024/03/07 03:25:41;;;;;;;21.87;18.60;;;6.40;67.00;;;;;;4988150;28;20211;-57
2024/03/07 03:28:09;;;;;;;22.67;18.60;;;6.30;67.00;;;;;;4994771;28;20284;-57
2024/03/07 03:30:36;;;;;;;23.53;19.87;;;6.40;66.60;;;;;;4987236;28;20400;-58
2024/03/07 03:33:02;;;;;;;26.67;20.60;;;6.30;66.60;;;;;;4990838;28;20231;-58
2024/03/07 03:35:29;;;;;;;26.00;20.87;;;6.20;65.40;;;;;;4989295;28;20270;-57
2024/03/07 03:37:56;;;;;;;24.87;20.93;;;6.30;66.20;;;;;;4987162;28;20596;-59
2024/03/07 03:40:22;;;;;;;25.87;19.80;;;6.40;66.40;;;;;;4988766;28;20235;-59
2024/03/07 03:42:50;;;;;;;25.00;19.57;;;6.40;66.50;;;;;;4999131;28;20249;-59
2024/03/07 03:45:16;;;;;;;25.07;19.53;;;6.40;66.60;;;;;;4994904;28;20669;-58
2024/03/07 03:47:44;;;;;;;25.17;20.03;;;6.40;66.10;;;;;;4995203;28;20210;-59
2024/03/07 03:50:10;;;;;;;23.43;19.53;;;6.30;65.80;;;;;;4993002;28;20214;-59
2024/03/07 03:52:37;;;;;;;24.57;19.43;;;6.30;65.80;;;;;;4988253;28;20460;-59
2024/03/07 03:55:04;;;;;;;25.73;20.17;;;6.40;65.70;;;;;;4986089;28;20223;-60
2024/03/07 03:57:30;;;;;;;24.33;19.73;;;6.30;65.60;;;;;;4993834;28;20214;-59
2024/03/07 03:59:57;;;;;;;28.17;20.37;;;6.40;65.50;;;;;;4995069;28;20755;-57
2024/03/07 04:02:23;;;;;;;23.27;19.40;;;6.30;65.20;;;;;;4995258;28;20233;-59
2024/03/07 04:04:51;;;;;;;27.70;21.50;;;6.20;65.90;;;;;;4994983;28;20207;-59
2024/03/07 04:07:17;;;;;;;27.20;20.97;;;6.20;65.40;;;;;;4995750;28;20302;-57
2024/03/07 04:09:44;;;;;;;26.80;20.37;;;6.20;64.90;;;;;;4986132;28;20210;-60
2024/03/07 04:12:11;;;;;;;25.20;20.30;;;6.30;64.90;;;;;;4990921;28;20735;-60
2024/03/07 04:14:38;;;;;;;27.27;20.83;;;6.30;65.00;;;;;;4996338;28;20649;-58
2024/03/07 04:17:06;;;;;;;28.00;22.57;;;6.30;64.80;;;;;;4995573;28;20210;-58
2024/03/07 04:19:33;;;;;;;27.77;22.03;;;6.00;65.60;;;;;;4990241;28;20218;-60
2024/03/07 04:21:59;;;;;;;30.03;23.50;;;6.00;65.40;;;;;;4997306;28;20659;-58
2024/03/07 04:24:26;;;;;;;29.93;22.77;;;6.10;65.60;;;;;;4995984;28;20267;-57
2024/03/07 04:26:53;;;;;;;28.83;22.10;;;6.10;65.30;;;;;;4996275;28;20253;-58
2024/03/07 04:29:20;;;;;;;32.63;23.10;;;6.20;64.10;;;;;;4984470;28;20206;-58
2024/03/07 04:31:46;;;;;;;29.30;22.97;;;6.00;64.50;;;;;;4993029;28;20264;-56
2024/03/07 04:34:13;;;;;;;29.50;23.33;;;6.20;64.70;;;;;;4991443;28;20207;-58
2024/03/07 04:36:39;;;;;;;31.87;24.10;;;6.10;63.30;;;;;;4989552;28;20582;-59
2024/03/07 04:39:14;;;;;;;31.47;24.33;;;6.10;63.30;;;;;;4988708;28;20672;-58
2024/03/07 04:41:41;;;;;;;31.80;24.60;;;6.00;62.70;;;;;;4999474;28;20238;-56
2024/03/07 04:44:07;;;;;;;29.17;24.00;;;5.90;62.90;;;;;;4994921;28;20246;-59
2024/03/07 04:46:34;;;;;;;31.83;23.70;;;6.00;63.20;;;;;;4997481;28;20222;-59
2024/03/07 04:49:00;;;;;;;33.63;24.37;;;6.00;62.80;;;;;;4996040;28;20214;-57
2024/03/07 04:51:27;;;;;;;29.13;24.30;;;6.10;62.40;;;;;;4998930;28;20230;-56
2024/03/07 04:53:54;;;;;;;31.03;23.53;;;6.00;62.50;;;;;;4983971;28;20207;-58
2024/03/07 04:56:20;;;;;;;34.60;24.70;;;6.10;62.20;;;;;;4994022;28;20266;-60
2024/03/07 04:58:49;;;;;;;31.40;25.07;;;6.10;62.10;;;;;;4997384;28;20588;-59
2024/03/07 05:01:16;;;;;;;37.53;25.60;;;6.00;61.50;;;;;;4994764;28;20234;-59
2024/03/07 05:03:42;;;;;;;38.03;27.40;;;6.00;61.70;;;;;;4995647;28;20265;-59
2024/03/07 05:06:09;;;;;;;35.17;26.27;;;5.90;62.40;;;;;;4995068;28;20227;-59
2024/03/07 05:08:35;;;;;;;32.77;25.27;;;6.00;62.00;;;;;;4994411;28;20245;-59
2024/03/07 05:11:02;;;;;;;35.43;26.00;;;6.00;61.60;;;;;;4997831;28;20211;-59
2024/03/07 05:13:28;;;;;;;31.23;24.60;;;5.90;61.90;;;;;;4992851;28;20219;-59
2024/03/07 05:15:55;;;;;;;36.70;27.13;;;5.80;62.00;;;;;;4998649;28;20233;-60
2024/03/07 05:18:21;;;;;;;32.30;24.93;;;5.90;61.70;;;;;;4996706;28;20681;-59
2024/03/07 05:20:48;;;;;;;34.03;25.60;;;5.90;60.70;;;;;;4996495;28;20225;-58
2024/03/07 05:23:15;;;;;;;34.77;25.67;;;5.70;61.30;;;;;;4997431;28;20234;-58
2024/03/07 05:25:42;;;;;;;35.13;26.57;;;5.70;61.60;;;;;;4997140;28;20243;-59
2024/03/07 05:28:09;;;;;;;34.83;25.77;;;5.80;60.70;;;;;;4992181;28;20235;-60
2024/03/07 05:30:35;;;;;;;34.80;27.13;;;5.70;61.10;;;;;;4991971;28;20702;-58
2024/03/07 05:33:01;;;;;;;36.17;27.73;;;5.80;61.30;;;;;;4984005;28;20262;-58
2024/03/07 05:35:29;;;;;;;36.50;27.63;;;5.70;61.60;;;;;;4995238;28;20260;-59
2024/03/07 05:37:56;;;;;;;34.43;25.60;;;5.80;60.80;;;;;;4983671;28;20216;-59
2024/03/07 05:40:23;;;;;;;34.40;26.13;;;5.80;60.50;;;;;;4997798;28;20222;-59
2024/03/07 05:42:49;;;;;;;37.43;28.10;;;5.70;60.70;;;;;;4996197;28;20226;-57
2024/03/07 05:45:17;;;;;;;40.67;27.60;;;5.70;60.90;;;;;;4996779;28;20679;-58
2024/03/07 05:47:45;;;;;;;37.90;27.20;;;5.70;60.70;;;;;;4997867;28;20209;-60
2024/03/07 05:50:13;;;;;;;37.73;27.90;;;5.70;59.80;;;;;;4994873;28;20238;-59
2024/03/07 05:52:39;;;;;;;36.53;27.37;;;5.60;59.50;;;;;;4989302;28;20233;-60
2024/03/07 05:55:07;;;;;;;37.10;28.10;;;5.60;59.70;;;;;;4996519;28;20226;-58
2024/03/07 05:57:33;;;;;;;36.13;27.33;;;5.50;59.50;;;;;;4996888;28;20527;-59
2024/03/07 06:00:00;;;;;;;34.00;26.63;;;5.50;59.50;;;;;;4998195;28;20275;-58
2024/03/07 06:02:27;;;;;;;36.60;27.20;;;5.40;59.40;;;;;;4997450;28;20257;-59
2024/03/07 06:04:53;;;;;;;40.23;28.43;;;5.40;59.10;;;;;;4995731;28;20672;-58
2024/03/07 06:07:20;;;;;;;39.80;28.00;;;5.30;59.60;;;;;;4996135;28;20344;-60
2024/03/07 06:09:48;;;;;;;34.97;27.30;;;5.40;59.90;;;;;;4988895;28;20236;-58
2024/03/07 06:12:14;;;;;;;36.90;26.87;;;5.30;60.00;;;;;;4988088;28;20236;-60
2024/03/07 06:14:41;;;;;;;37.07;28.20;;;5.40;59.10;;;;;;4995670;28;20216;-59
2024/03/07 06:17:07;;;;;;;37.90;28.17;;;5.30;59.30;;;;;;4993915;28;20268;-58
2024/03/07 06:19:34;;;;;;;37.60;28.30;;;5.40;59.40;;;;;;4994015;28;20305;-57
2024/03/07 06:22:00;;;;;;;37.30;28.23;;;5.50;59.00;;;;;;4993987;28;20274;-56
2024/03/07 06:24:30;;;;;;;41.80;29.43;;;5.50;58.50;;;;;;4993990;28;20260;-57
2024/03/07 06:27:00;;;;;;;36.00;27.23;;;5.40;58.80;;;;;;4986411;28;20305;-57
2024/03/07 06:29:28;;;;;;;39.20;27.83;;;5.50;59.20;;;;;;4993455;28;20236;-58
2024/03/07 06:31:55;;;;;;;39.00;28.57;;;5.60;58.10;;;;;;4995272;28;20237;-57
2024/03/07 06:34:21;;;;;;;37.90;28.00;;;5.60;58.80;;;;;;4990605;28;20252;-58
2024/03/07 06:36:48;;;;;;;36.90;28.40;;;5.50;58.40;;;;;;4983820;28;20678;-57
2024/03/07 06:39:15;;;;;;;37.60;27.57;;;5.50;58.60;;;;;;4987087;28;20232;-58
2024/03/07 06:41:42;;;;;;;36.67;27.87;;;5.60;58.40;;;;;;4995809;28;20236;-58
2024/03/07 06:44:09;;;;;;;40.63;29.13;;;5.40;58.30;;;;;;4993343;28;20567;-58
2024/03/07 06:46:36;;;;;;;40.30;28.73;;;5.50;58.80;;;;;;4986579;28;20211;-60
2024/03/07 06:49:02;;;;;;;37.57;27.37;;;5.60;57.50;;;;;;4995237;28;20256;-57
2024/03/07 06:51:29;;;;;;;37.87;27.40;;;5.50;57.40;;;;;;4994277;28;20285;-57
2024/03/07 06:53:55;;;;;;;37.97;28.57;;;5.60;57.70;;;;;;4985264;28;20211;-57
2024/03/07 06:56:23;;;;;;;36.40;27.43;;;5.50;58.20;;;;;;4990180;28;20229;-60
2024/03/07 06:58:50;;;;;;;34.57;27.80;;;5.50;58.10;;;;;;4987654;28;20210;-58
2024/03/07 07:01:18;;;;;;;37.20;26.93;;;5.60;57.90;;;;;;4990269;28;20284;-58
2024/03/07 07:03:45;;;;;;;37.97;28.33;;;5.60;57.80;;;;;;4991394;28;20611;-60
2024/03/07 07:06:11;;;;;;;38.57;27.47;;;5.70;57.50;;;;;;4990209;28;20207;-59
2024/03/07 07:08:38;;;;;;;34.93;25.60;;;5.70;58.50;;;;;;4994801;28;20229;-58
2024/03/07 07:11:04;;;;;;;36.67;27.40;;;5.80;59.70;;;;;;4986618;28;20232;-57
2024/03/07 07:13:31;;;;;;;36.97;27.67;;;5.80;57.40;;;;;;4986788;28;20205;-58
2024/03/07 07:15:57;;;;;;;39.33;29.03;;;5.70;58.10;;;;;;4989868;28;20264;-56
2024/03/07 07:18:24;;;;;;;34.70;27.10;;;5.70;58.40;;;;;;4992793;28;20272;-56
2024/03/07 07:20:51;;;;;;;39.57;30.53;;;5.70;59.30;;;;;;4994315;28;20221;-58
2024/03/07 07:23:18;;;;;;;40.13;28.10;;;5.80;58.30;;;;;;4994363;28;20333;-56
2024/03/07 07:25:46;;;;;;;37.77;27.73;;;5.80;58.50;;;;;;4994723;28;20574;-56
2024/03/07 07:28:12;;;;;;;34.80;27.83;;;5.90;58.50;;;;;;4991376;28;20594;-59
2024/03/07 07:30:39;;;;;;;37.50;27.13;;;5.80;57.90;;;;;;4982084;28;20206;-55
2024/03/07 07:33:06;;;;;;;35.50;27.47;;;5.80;58.50;;;;;;4983928;28;20262;-58
2024/03/07 07:35:34;;;;;;;41.37;26.93;;;5.90;58.80;;;;;;4991366;28;20253;-59
2024/03/07 07:38:00;;;;;;;38.13;28.03;;;6.00;58.40;;;;;;4991350;28;20225;-58
2024/03/07 07:40:28;;;;;;;36.97;27.20;;;6.00;57.60;;;;;;4987385;28;20211;-58
2024/03/07 07:42:54;;;;;;;36.50;27.30;;;6.00;58.80;;;;;;4987572;28;20234;-57
2024/03/07 07:45:21;;;;;;;40.60;29.17;;;6.10;57.50;;;;;;4986984;28;20242;-58
2024/03/07 07:47:48;;;;;;;35.27;27.73;;;6.00;57.00;;;;;;4992386;28;20209;-56
2024/03/07 07:50:17;;;;;;;38.57;27.53;;;5.90;57.00;;;;;;4989766;28;20209;-56
2024/03/07 07:52:44;;;;;;;38.67;29.13;;;5.80;57.60;;;;;;4989340;28;20623;-57
2024/03/07 07:55:14;;;;;;;37.97;27.00;;;5.80;57.90;;;;;;4992966;28;20215;-57
2024/03/07 07:57:40;;;;;;;37.77;27.87;;;5.80;57.90;;;;;;4993217;28;20267;-57
2024/03/07 08:00:09;;;;;;;32.80;25.53;;;5.70;57.50;;;;;;4987163;28;20245;-56
2024/03/07 08:02:36;;;;;;;36.00;28.07;;;5.70;57.80;;;;;;4981438;28;20267;-59
2024/03/07 08:05:05;;;;;;;37.97;26.90;;;5.70;57.90;;;;;;4994259;28;20217;-58
2024/03/07 08:07:31;;;;;;;41.30;28.33;;;5.60;57.70;;;;;;4995189;28;20225;-58
2024/03/07 08:09:58;;;;;;;36.43;27.10;;;5.60;58.30;;;;;;4991739;28;20684;-59
2024/03/07 08:12:24;;;;;;;37.80;27.77;;;5.60;58.40;;;;;;4994921;28;20227;-56
2024/03/07 08:14:51;;;;;;;37.03;26.97;;;5.70;58.30;;;;;;4964183;28;20238;-60
2024/03/07 08:17:18;;;;;;;35.23;27.33;;;5.60;58.70;;;;;;4992458;28;20226;-58
2024/03/07 08:19:44;;;;;;;39.97;27.37;;;5.80;58.20;;;;;;4991020;28;20639;-60
2024/03/07 08:22:11;;;;;;;38.97;28.10;;;5.70;58.20;;;;;;4962904;28;20301;-61
2024/03/07 08:24:37;;;;;;;42.77;28.63;;;5.80;57.50;;;;;;4984119;28;20636;-58
2024/03/07 08:27:04;;;;;;;36.83;27.57;;;5.80;57.90;;;;;;4985934;28;20588;-58
2024/03/07 08:29:31;;;;;;;36.27;27.13;;;6.00;58.30;;;;;;4981213;28;20206;-59
2024/03/07 08:31:57;;;;;;;38.63;27.53;;;6.00;57.90;;;;;;4983068;28;20299;-59
2024/03/07 08:34:24;;;;;;;38.90;27.77;;;5.90;57.50;;;;;;4991823;28;20219;-58
2024/03/07 08:36:50;;;;;;;39.80;29.27;;;5.70;58.40;;;;;;4986737;28;20227;-59
2024/03/07 08:39:19;;;;;;;37.30;27.87;;;5.60;58.30;;;;;;4992007;28;20205;-58
2024/03/07 08:41:46;;;;;;;38.47;27.70;;;5.70;58.80;;;;;;4988153;28;20298;-59
2024/03/07 08:44:13;;;;;;;43.67;30.13;;;5.80;58.40;;;;;;4989248;28;20203;-58
2024/03/07 08:46:41;;;;;;;42.93;29.10;;;5.80;58.40;;;;;;4990086;28;20626;-60
2024/03/07 08:49:08;;;;;;;40.10;29.97;;;5.90;59.00;;;;;;4993260;28;20226;-60
2024/03/07 08:51:35;;;;;;;36.03;28.30;;;6.00;58.00;;;;;;4991203;28;20242;-59
2024/03/07 08:54:02;;;;;;;38.47;28.40;;;6.10;57.90;;;;;;4990916;28;20233;-59
2024/03/07 08:56:28;;;;;;;36.10;27.67;;;6.20;57.80;;;;;;4989656;28;20226;-58
2024/03/07 08:58:55;;;;;;;36.63;27.50;;;6.10;57.30;;;;;;4998451;28;20692;-59
2024/03/07 09:01:21;;;;;;;42.33;29.57;;;6.10;58.00;;;;;;4994474;28;20285;-58
2024/03/07 09:03:48;;;;;;;39.37;27.13;;;6.10;57.70;;;;;;4995289;28;20214;-58
2024/03/07 09:06:16;;;;;;;35.77;26.83;;;6.20;58.00;;;;;;4988268;28;20591;-60
2024/03/07 09:08:43;;;;;;;37.50;27.77;;;6.20;57.70;;;;;;4987462;28;20264;-57
2024/03/07 09:11:09;;;;;;;35.60;26.03;;;6.20;57.70;;;;;;4995614;28;20262;-58
2024/03/07 09:13:37;;;;;;;36.23;26.80;;;6.20;57.80;;;;;;4989275;28;20273;-59
2024/03/07 09:16:04;;;;;;;34.10;26.27;;;6.20;57.70;;;;;;4987856;28;20266;-59
2024/03/07 09:18:31;;;;;;;32.77;24.93;;;6.20;57.50;;;;;;4988992;28;20214;-60
2024/03/07 09:20:58;;;;;;;31.30;24.20;;;6.30;56.70;;;;;;4996659;28;20223;-57
2024/03/07 09:23:24;;;;;;;33.33;23.57;;;6.40;57.20;;;;;;4992803;28;20210;-58
2024/03/07 09:25:51;;;;;;;31.13;23.30;;;6.50;56.50;;;;;;4993818;28;20285;-59
2024/03/07 09:28:18;;;;;;;31.10;24.40;;;6.60;56.50;;;;;;4993949;28;20231;-58
2024/03/07 09:30:44;;;;;;;30.70;23.10;;;6.50;56.00;;;;;;4987835;28;20215;-58
2024/03/07 09:33:11;;;;;;;32.93;25.07;;;6.50;56.00;;;;;;4983986;28;20306;-58
2024/03/07 09:35:38;;;;;;;32.90;24.97;;;6.40;55.90;;;;;;4996105;28;20214;-57
2024/03/07 09:38:06;;;;;;;32.10;23.00;;;6.60;56.00;;;;;;4989632;28;20218;-58
2024/03/07 09:40:34;;;;;;;35.80;24.60;;;6.70;55.40;;;;;;4988104;28;20238;-58
2024/03/07 09:43:00;;;;;;;34.90;25.17;;;6.70;55.40;;;;;;4983192;28;20227;-58
2024/03/07 09:45:27;;;;;;;32.10;24.43;;;6.80;54.90;;;;;;4992660;28;20210;-57
2024/03/07 09:47:53;;;;;;;30.37;24.03;;;6.60;55.00;;;;;;4995912;28;20309;-57
2024/03/07 09:50:21;;;;;;;29.67;23.13;;;6.40;55.90;;;;;;4994572;28;20231;-57
2024/03/07 09:52:49;;;;;;;31.80;23.17;;;6.60;56.00;;;;;;4996681;28;20235;-55
2024/03/07 09:55:15;;;;;;;31.63;22.50;;;6.60;56.40;;;;;;4984412;28;20302;-58
2024/03/07 09:57:42;;;;;;;28.60;23.17;;;6.70;56.10;;;;;;4993749;28;20234;-57
2024/03/07 10:00:08;;;;;;;32.83;23.40;;;6.80;56.00;;;;;;4995722;28;20210;-57
2024/03/07 10:02:35;;;;;;;27.80;22.67;;;6.90;56.30;;;;;;4994844;28;20647;-57
2024/03/07 10:05:02;;;;;;;29.33;22.37;;;7.00;56.40;;;;;;4995632;28;20277;-57
2024/03/07 10:07:29;;;;;;;29.93;24.10;;;7.00;55.60;;;;;;4992394;28;20214;-58
2024/03/07 10:09:57;;;;;;;34.00;23.70;;;6.90;56.10;;;;;;4990872;28;20313;-60
2024/03/07 10:12:24;;;;;;;27.97;22.70;;;6.90;55.80;;;;;;4990299;28;20234;-58
2024/03/07 10:14:51;;;;;;;30.83;22.20;;;7.00;56.00;;;;;;4992995;28;20208;-53
2024/03/07 10:17:17;;;;;;;30.33;22.33;;;7.10;56.50;;;;;;4994570;28;20226;-56
2024/03/07 10:19:44;;;;;;;29.33;22.87;;;7.20;55.80;;;;;;4992753;28;20218;-55
2024/03/07 10:22:11;;;;;;;29.97;23.60;;;7.10;55.10;;;;;;4995385;28;20702;-58
2024/03/07 10:24:38;;;;;;;29.80;23.47;;;7.10;55.90;;;;;;4995572;28;20215;-56
2024/03/07 10:27:05;;;;;;;32.97;24.20;;;7.10;55.40;;;;;;4995225;28;20242;-59
2024/03/07 10:29:32;;;;;;;30.37;23.00;;;7.10;55.20;;;;;;4990095;28;20746;-57
2024/03/07 10:31:59;;;;;;;29.13;22.93;;;7.00;55.50;;;;;;4986952;28;20227;-56
2024/03/07 10:34:25;;;;;;;28.03;21.70;;;7.10;56.20;;;;;;4988806;28;20207;-57
2024/03/07 10:36:54;;;;;;;26.93;22.43;;;7.10;56.40;;;;;;4989040;28;20239;-57
2024/03/07 10:39:21;;;;;;;26.77;21.63;;;7.20;55.70;;;;;;4976769;28;20211;-57
2024/03/07 10:41:48;;;;;;;28.87;20.93;;;7.20;55.60;;;;;;4989706;28;20262;-59
2024/03/07 10:44:16;;;;;;;28.87;21.73;;;7.00;55.60;;;;;;4991073;28;25701;-58
2024/03/07 10:46:42;;;;;;;30.20;21.67;;;7.20;55.00;;;;;;4988531;28;20212;-58
2024/03/07 10:49:09;;;;;;;29.70;22.80;;;7.20;54.30;;;;;;4994520;28;20548;-59
2024/03/07 10:51:36;;;;;;;31.10;23.17;;;7.20;55.10;;;;;;4985551;28;20573;-59
2024/03/07 10:54:05;;;;;;;30.13;21.57;;;7.30;54.40;;;;;;4995096;28;20657;-55
2024/03/07 10:56:32;;;;;;;33.67;22.97;;;7.30;53.80;;;;;;4993775;28;20733;-59
2024/03/07 10:58:59;;;;;;;26.67;20.93;;;7.30;53.00;;;;;;4987795;28;20207;-56
2024/03/07 11:01:25;;;;;;;31.07;21.67;;;7.30;53.00;;;;;;4979351;28;20270;-56
2024/03/07 11:03:57;;;;;;;27.63;21.03;;;7.20;52.10;;;;;;4988998;28;20682;-56
2024/03/07 11:06:24;;;;;;;29.07;21.80;;;7.20;52.10;;;;;;4989389;28;20207;-56
2024/03/07 11:08:51;;;;;;;24.43;19.40;;;7.50;52.10;;;;;;4988999;28;20239;-59
2024/03/07 11:11:17;;;;;;;25.87;20.67;;;7.90;50.30;;;;;;4995823;28;20269;-59
2024/03/07 11:13:44;;;;;;;27.07;20.20;;;7.80;50.00;;;;;;4995500;28;20682;-57
2024/03/07 11:16:13;;;;;;;30.00;21.23;;;8.00;50.50;;;;;;4975591;28;20228;-59
2024/03/07 11:18:40;;;;;;;25.40;19.83;;;7.70;50.50;;;;;;4994501;28;20204;-54
2024/03/07 11:21:07;;;;;;;27.13;20.90;;;7.70;50.60;;;;;;4986351;28;20674;-57
2024/03/07 11:23:38;;;;;;;26.97;20.03;;;7.60;51.40;;;;;;4989116;28;20293;-57
2024/03/07 11:26:07;;;;;;;28.67;20.87;;;7.60;51.00;;;;;;4992668;28;20299;-57
2024/03/07 11:28:34;;;;;;;27.97;20.53;;;7.80;52.00;;;;;;4994108;28;20204;-60
2024/03/07 11:31:00;;;;;;;26.60;20.87;;;7.90;52.40;;;;;;4988931;28;20287;-58
2024/03/07 11:33:27;;;;;;;26.00;20.17;;;8.00;52.30;;;;;;4990566;28;20204;-59
2024/03/07 11:35:53;;;;;;;27.37;20.93;;;7.70;50.70;;;;;;4990788;28;20215;-59
2024/03/07 11:38:23;;;;;;;27.60;21.10;;;7.60;50.80;;;;;;4995022;28;20226;-59
2024/03/07 11:40:50;;;;;;;25.83;20.10;;;7.60;51.30;;;;;;4996068;28;20574;-58
2024/03/07 11:43:16;;;;;;;25.63;19.57;;;7.70;51.40;;;;;;4995312;28;20288;-58
2024/03/07 11:45:52;;;;;;;25.43;20.60;;;8.10;50.40;;;;;;4995935;28;20212;-59
2024/03/07 11:48:20;;;;;;;25.90;19.97;;;8.50;49.70;;;;;;4995572;28;20211;-58
2024/03/07 11:50:46;;;;;;;28.03;20.57;;;8.70;48.90;;;;;;4986879;28;20690;-59
2024/03/07 11:53:13;;;;;;;26.80;21.60;;;8.50;48.20;;;;;;4988131;28;20728;-59
2024/03/07 11:55:45;;;;;;;23.87;19.33;;;8.40;48.90;;;;;;4994389;28;20586;-57
2024/03/07 11:58:13;;;;;;;27.80;20.10;;;8.50;49.80;;;;;;4995405;28;20243;-58
2024/03/07 12:00:42;;;;;;;30.40;21.67;;;8.20;50.00;;;;;;4996722;28;20246;-58
2024/03/07 12:03:08;;;;;;;28.47;21.80;;;8.20;49.80;;;;;;4996242;28;20236;-57
2024/03/07 12:05:35;;;;;;;26.57;20.77;;;8.10;50.50;;;;;;4995953;28;20682;-59
2024/03/07 12:08:05;;;;;;;28.67;22.53;;;7.90;50.60;;;;;;4995126;28;20561;-56
2024/03/07 12:10:33;;;;;;;25.97;20.40;;;8.00;50.90;;;;;;4991999;28;20211;-58
2024/03/07 12:13:01;;;;;;;27.33;20.83;;;7.90;50.70;;;;;;4995237;28;20263;-59
2024/03/07 12:15:27;;;;;;;25.40;19.43;;;7.90;50.60;;;;;;4998931;28;20640;-60
2024/03/07 12:17:55;;;;;;;26.27;19.77;;;7.90;50.00;;;;;;5003256;28;20282;-61
2024/03/07 12:20:30;;;;;;;25.33;19.53;;;7.90;49.20;;;;;;5002937;28;20229;-59
2024/03/07 12:22:57;;;;;;;27.10;20.77;;;7.90;50.00;;;;;;5001979;28;20235;-57
2024/03/07 12:25:24;;;;;;;28.97;21.63;;;7.90;49.50;;;;;;5002114;28;20662;-61
2024/03/07 12:27:50;;;;;;;26.87;19.97;;;7.80;49.90;;;;;;4998420;28;20200;-59
2024/03/07 12:30:16;;;;;;;28.07;19.60;;;7.90;50.30;;;;;;4999500;28;20686;-56
2024/03/07 12:32:50;;;;;;;26.70;19.53;;;7.90;49.40;;;;;;4989356;28;20238;-64